WIII/CGK METAR and TAF weather

Enter ICAO airport designator
Station Type Date Time Source
WIII METAR 2020/11/27 02:30 UTC NOAA

WIII 270230Z VRB05KT 7000 FEW020 31/22 Q1009 NOSIG


Station Type Date Time Source
WIII Decoded METAR 2020/11/27 02:30 UTC NOAA

Jakarta / Soekarno-Hatta, Indonesia (WIII) 06-07S 106-39E 8M
Nov 26, 2020 - 09:30 PM EST / 2020.11.27 0230 UTC
Wind: Variable at 6 MPH (5 KT):0
Visibility: 4 mile(s):0
Sky conditions: mostly clear
Temperature: 87 F (31 C)
Heat index: 92.3 F (33.5 C):1
Dew Point: 71 F (22 C)
Relative Humidity: 58%
Pressure (altimeter): 29.80 in. Hg (1009 hPa)
ob: WIII 270230Z VRB05KT 7000 FEW020 31/22 Q1009 NOSIG
cycle: 2

Station Type Date Time Source
WIII TAF 2020/11/26 18:53 UTC NOAA

TAF WIII 261700Z 2618/2724 24010KT 7000 FEW020
TEMPO 2708/2712 TS FEW018CB BKN020

Example: see airport list